Time;durP1;ratioP1;P1;durP2;ratioP2;P2;SDS_P1;SDS_P2;PMS_P1;PMS_P2;Temp;Humidity;BMP_temperature;BMP_pressure;BME280_temperature;BME280_humidity;BME280_pressure;Samples;Min_cycle;Max_cycle;Signal;HPM_P1;HPM_P2
2024/01/16 02:51:40;;;;;;;30.63;15.05;;;;;;;;;;5103605;22;20118;-88
2024/01/16 02:54:06;;;;;;;33.65;15.57;;;;;;;;;;5050422;28;20020;-88
2024/01/16 02:56:31;;;;;;;40.67;15.25;;;;;;;;;;5067985;28;20028;-89
2024/01/16 02:58:56;;;;;;;32.60;15.00;;;;;;;;;;5046104;28;20029;-86
2024/01/16 03:01:22;;;;;;;40.35;15.77;;;;;;;;;;5049996;28;20111;-89
2024/01/16 03:03:47;;;;;;;38.97;17.40;;;;;;;;;;5067448;28;20021;-89
2024/01/16 03:06:25;;;;;;;38.03;17.45;;;;;;;;;;5049628;28;20017;-89
2024/01/16 03:08:51;;;;;;;41.20;18.17;;;;;;;;;;5049354;28;20051;-89
2024/01/16 03:11:16;;;;;;;43.05;18.65;;;;;;;;;;5055031;28;20063;-89
2024/01/16 03:13:43;;;;;;;43.97;19.33;;;;;;;;;;5058945;28;20424;-89
2024/01/16 03:16:08;;;;;;;54.72;21.33;;;;;;;;;;5058856;28;20416;-88
2024/01/16 03:18:33;;;;;;;51.42;22.40;;;;;;;;;;5076661;28;20052;-89
2024/01/16 03:20:59;;;;;;;42.20;17.75;;;;;;;;;;5058781;28;20024;-88
2024/01/16 03:23:24;;;;;;;55.60;20.40;;;;;;;;;;5072207;28;20025;-89
2024/01/16 03:25:50;;;;;;;42.42;19.13;;;;;;;;;;5056537;28;20017;-89
2024/01/16 03:28:15;;;;;;;46.72;18.73;;;;;;;;;;5038987;28;20409;-89
2024/01/16 03:30:40;;;;;;;40.65;18.80;;;;;;;;;;5038939;28;20021;-88
2024/01/16 03:33:06;;;;;;;40.72;18.60;;;;;;;;;;5038923;28;20028;-88
2024/01/16 03:35:31;;;;;;;43.35;17.88;;;;;;;;;;5042717;28;20031;-89
2024/01/16 03:37:56;;;;;;;38.92;17.95;;;;;;;;;;5043073;28;20029;-88
2024/01/16 03:40:21;;;;;;;47.28;18.80;;;;;;;;;;5045895;28;20055;-89
2024/01/16 03:42:47;;;;;;;47.53;19.73;;;;;;;;;;5062726;28;20127;-89
2024/01/16 03:45:13;;;;;;;40.92;19.10;;;;;;;;;;5080369;28;20027;-88
2024/01/16 03:47:38;;;;;;;48.58;20.27;;;;;;;;;;5065293;28;20025;-88
2024/01/16 03:50:04;;;;;;;49.33;20.40;;;;;;;;;;5080163;28;20023;-88
2024/01/16 03:52:29;;;;;;;42.58;19.80;;;;;;;;;;5048711;28;20417;-88
2024/01/16 03:54:54;;;;;;;51.67;21.20;;;;;;;;;;5042527;28;20025;-88
2024/01/16 03:57:20;;;;;;;46.92;18.83;;;;;;;;;;5041969;28;20025;-88
2024/01/16 03:59:45;;;;;;;53.00;21.13;;;;;;;;;;5042478;28;20029;-88
2024/01/16 04:02:10;;;;;;;61.58;23.85;;;;;;;;;;5042123;28;20028;-88
2024/01/16 04:04:36;;;;;;;50.38;23.38;;;;;;;;;;5060290;28;20017;-88
2024/01/16 04:07:01;;;;;;;62.00;24.85;;;;;;;;;;5067500;28;20442;-89
2024/01/16 04:09:26;;;;;;;50.97;23.10;;;;;;;;;;5059831;28;20024;-88
2024/01/16 04:11:51;;;;;;;57.47;25.55;;;;;;;;;;5052724;28;20040;-88
2024/01/16 04:14:17;;;;;;;55.53;22.08;;;;;;;;;;5066452;28;20108;-88
2024/01/16 04:16:42;;;;;;;59.90;23.75;;;;;;;;;;5064517;28;20116;-88
2024/01/16 04:19:12;;;;;;;55.08;23.15;;;;;;;;;;5067705;28;20064;-89
2024/01/16 04:21:37;;;;;;;50.95;21.48;;;;;;;;;;5062714;28;20035;-89
2024/01/16 04:24:03;;;;;;;58.85;21.30;;;;;;;;;;5078333;28;20106;-89
2024/01/16 04:26:28;;;;;;;51.00;21.30;;;;;;;;;;5043100;28;20021;-88
2024/01/16 04:28:53;;;;;;;48.47;20.85;;;;;;;;;;5051752;28;20417;-88
2024/01/16 04:31:21;;;;;;;43.92;19.77;;;;;;;;;;5060910;28;20017;-89
2024/01/16 04:33:46;;;;;;;48.42;20.10;;;;;;;;;;5062912;28;20017;-89
2024/01/16 04:36:12;;;;;;;51.97;22.40;;;;;;;;;;5041593;28;20052;-88
2024/01/16 04:38:37;;;;;;;52.70;22.45;;;;;;;;;;5079396;28;20111;-89
2024/01/16 04:41:03;;;;;;;63.63;25.20;;;;;;;;;;5042873;28;20556;-88
2024/01/16 04:43:28;;;;;;;61.15;25.80;;;;;;;;;;5066887;28;20020;-89
2024/01/16 04:45:54;;;;;;;65.95;28.17;;;;;;;;;;5043284;28;20025;-89
2024/01/16 04:48:19;;;;;;;60.53;22.48;;;;;;;;;;5075858;28;20020;-88
2024/01/16 04:50:45;;;;;;;61.92;23.58;;;;;;;;;;5078271;28;20036;-88
2024/01/16 04:53:10;;;;;;;64.82;25.05;;;;;;;;;;5061315;28;20185;-88
2024/01/16 04:55:36;;;;;;;68.90;26.92;;;;;;;;;;5077839;28;20122;-89
2024/01/16 04:58:01;;;;;;;73.18;28.23;;;;;;;;;;5077692;28;20020;-89
2024/01/16 05:00:27;;;;;;;71.03;29.58;;;;;;;;;;5054196;28;20116;-88
2024/01/16 05:02:52;;;;;;;65.38;27.55;;;;;;;;;;5051371;28;20170;-88
2024/01/16 05:05:17;;;;;;;78.35;29.08;;;;;;;;;;5049751;28;20021;-89
2024/01/16 05:07:43;;;;;;;68.63;25.98;;;;;;;;;;5052087;28;20029;-88
2024/01/16 05:10:14;;;;;;;56.90;24.02;;;;;;;;;;5049306;28;20119;-89
2024/01/16 05:12:40;;;;;;;66.78;24.70;;;;;;;;;;5054770;28;20413;-88
2024/01/16 05:15:06;;;;;;;60.20;25.02;;;;;;;;;;5055214;28;20035;-88
2024/01/16 05:17:31;;;;;;;61.25;23.70;;;;;;;;;;5059732;28;20035;-90
2024/01/16 05:19:57;;;;;;;70.78;29.15;;;;;;;;;;5041965;28;20025;-89
2024/01/16 05:22:22;;;;;;;70.90;28.00;;;;;;;;;;5061911;28;20033;-89
2024/01/16 05:24:48;;;;;;;62.70;25.60;;;;;;;;;;5063657;28;20119;-89
2024/01/16 05:27:14;;;;;;;51.30;23.67;;;;;;;;;;5060716;28;20424;-89
2024/01/16 05:29:40;;;;;;;54.75;23.85;;;;;;;;;;5050388;28;20082;-89
2024/01/16 05:32:05;;;;;;;56.38;24.48;;;;;;;;;;5040994;28;20052;-89
2024/01/16 05:34:31;;;;;;;72.97;28.42;;;;;;;;;;5040836;28;20418;-89
2024/01/16 05:36:56;;;;;;;78.32;31.05;;;;;;;;;;5050274;28;20029;-89
2024/01/16 05:39:21;;;;;;;75.95;31.65;;;;;;;;;;5058237;28;20039;-89
2024/01/16 05:41:47;;;;;;;84.72;32.75;;;;;;;;;;5052624;28;20031;-89
2024/01/16 05:44:12;;;;;;;101.22;34.42;;;;;;;;;;5060758;28;20020;-90
2024/01/16 05:46:37;;;;;;;102.25;36.15;;;;;;;;;;5060538;28;20376;-89
2024/01/16 05:49:03;;;;;;;94.47;35.17;;;;;;;;;;5078282;28;20025;-89
2024/01/16 05:51:29;;;;;;;96.32;36.22;;;;;;;;;;5059858;28;20444;-90
2024/01/16 05:53:54;;;;;;;90.97;34.38;;;;;;;;;;5047551;28;20033;-87
2024/01/16 05:56:20;;;;;;;82.22;33.38;;;;;;;;;;5044125;28;20049;-86
2024/01/16 05:58:46;;;;;;;102.05;38.75;;;;;;;;;;5069831;28;20395;-86
2024/01/16 06:01:13;;;;;;;99.53;39.10;;;;;;;;;;5045931;28;20025;-86
2024/01/16 06:03:38;;;;;;;97.10;36.92;;;;;;;;;;5043230;28;20037;-85
2024/01/16 06:06:04;;;;;;;103.97;38.63;;;;;;;;;;5057621;28;20146;-85
2024/01/16 06:08:30;;;;;;;108.03;39.90;;;;;;;;;;5039273;28;20029;-85
2024/01/16 06:10:55;;;;;;;118.93;43.92;;;;;;;;;;5055911;28;20452;-85
2024/01/16 06:13:21;;;;;;;114.88;40.95;;;;;;;;;;5059290;28;20039;-85
2024/01/16 06:15:46;;;;;;;111.25;42.38;;;;;;;;;;5065944;28;20028;-85
2024/01/16 06:18:12;;;;;;;111.15;39.88;;;;;;;;;;5071710;28;20035;-85
2024/01/16 06:20:37;;;;;;;124.85;41.80;;;;;;;;;;5052679;28;20037;-85
2024/01/16 06:23:03;;;;;;;124.23;43.23;;;;;;;;;;5069045;28;20119;-86
2024/01/16 06:25:28;;;;;;;120.22;42.55;;;;;;;;;;5039556;28;20267;-86
2024/01/16 06:27:53;;;;;;;142.32;46.78;;;;;;;;;;5057072;28;20025;-86
2024/01/16 06:30:18;;;;;;;140.45;46.50;;;;;;;;;;5047180;28;20427;-85
2024/01/16 06:32:44;;;;;;;138.43;46.03;;;;;;;;;;5076936;28;20086;-85
2024/01/16 06:35:11;;;;;;;121.07;42.75;;;;;;;;;;5077012;28;20063;-85
2024/01/16 06:37:37;;;;;;;118.18;40.67;;;;;;;;;;5076959;28;20516;-85
2024/01/16 06:40:04;;;;;;;127.45;42.83;;;;;;;;;;5050571;28;20064;-85
2024/01/16 06:42:29;;;;;;;117.22;40.15;;;;;;;;;;5076919;28;20078;-85
2024/01/16 06:44:54;;;;;;;118.85;39.17;;;;;;;;;;5050767;28;20033;-85
2024/01/16 06:47:19;;;;;;;124.88;40.55;;;;;;;;;;5039199;28;20024;-85
2024/01/16 06:49:47;;;;;;;106.00;38.40;;;;;;;;;;5038846;28;20040;-85
2024/01/16 06:52:12;;;;;;;92.10;37.03;;;;;;;;;;5038646;28;20139;-85
2024/01/16 06:54:37;;;;;;;81.82;33.40;;;;;;;;;;5038819;28;20037;-85
2024/01/16 06:57:03;;;;;;;90.68;34.33;;;;;;;;;;5056720;28;20032;-85
2024/01/16 06:59:29;;;;;;;89.68;34.95;;;;;;;;;;5056724;28;20029;-85
2024/01/16 07:01:54;;;;;;;91.68;33.90;;;;;;;;;;5056394;28;20025;-85
2024/01/16 07:04:20;;;;;;;96.93;35.50;;;;;;;;;;5055130;28;20170;-84
2024/01/16 07:06:46;;;;;;;110.47;39.33;;;;;;;;;;5059315;28;20027;-85
2024/01/16 07:09:11;;;;;;;95.82;35.78;;;;;;;;;;5076210;28;20023;-85
2024/01/16 07:11:37;;;;;;;84.82;33.47;;;;;;;;;;5076477;28;20025;-85
2024/01/16 07:14:03;;;;;;;100.45;35.97;;;;;;;;;;5076543;28;20478;-85
2024/01/16 07:16:28;;;;;;;122.63;40.63;;;;;;;;;;5058867;28;20028;-85
2024/01/16 07:18:55;;;;;;;121.97;42.55;;;;;;;;;;5076569;28;20444;-85
2024/01/16 07:21:20;;;;;;;116.97;39.08;;;;;;;;;;5058635;28;20024;-85
2024/01/16 07:23:46;;;;;;;106.13;38.30;;;;;;;;;;5076565;28;20043;-85
2024/01/16 07:26:11;;;;;;;113.68;39.67;;;;;;;;;;5058906;28;20020;-85
2024/01/16 07:28:36;;;;;;;110.18;40.17;;;;;;;;;;5076524;28;20028;-85
2024/01/16 07:31:02;;;;;;;109.88;36.67;;;;;;;;;;5076367;28;20057;-85
2024/01/16 07:33:27;;;;;;;108.43;38.78;;;;;;;;;;5076465;28;20169;-85
2024/01/16 07:35:53;;;;;;;115.07;41.35;;;;;;;;;;5076372;28;20544;-85
2024/01/16 07:38:18;;;;;;;105.75;37.70;;;;;;;;;;5058695;28;20024;-85
2024/01/16 07:40:44;;;;;;;92.60;35.58;;;;;;;;;;5058499;28;20345;-85
2024/01/16 07:43:09;;;;;;;107.40;39.95;;;;;;;;;;5076259;28;20380;-85
2024/01/16 07:45:34;;;;;;;98.68;37.30;;;;;;;;;;5058616;28;20111;-85
2024/01/16 07:47:59;;;;;;;96.45;36.92;;;;;;;;;;5076233;28;20401;-85
2024/01/16 07:50:25;;;;;;;92.25;35.50;;;;;;;;;;5058481;28;20024;-85
2024/01/16 07:52:50;;;;;;;85.40;33.05;;;;;;;;;;5058202;28;20082;-85
2024/01/16 07:55:18;;;;;;;81.07;34.70;;;;;;;;;;5058474;28;20429;-85
2024/01/16 07:57:43;;;;;;;88.53;34.85;;;;;;;;;;5058431;28;20403;-85
2024/01/16 08:00:11;;;;;;;90.35;36.28;;;;;;;;;;5076165;28;20024;-85
2024/01/16 08:02:37;;;;;;;91.47;34.63;;;;;;;;;;5058308;28;20029;-85
2024/01/16 08:05:02;;;;;;;90.28;35.22;;;;;;;;;;5058424;28;20017;-85
2024/01/16 08:07:28;;;;;;;91.55;35.35;;;;;;;;;;5058383;28;20363;-85
2024/01/16 08:09:53;;;;;;;85.57;34.05;;;;;;;;;;5076087;28;20490;-85
2024/01/16 08:12:18;;;;;;;95.25;37.47;;;;;;;;;;5075972;28;20074;-85
2024/01/16 08:14:44;;;;;;;84.35;36.33;;;;;;;;;;5058289;28;20048;-85
2024/01/16 08:17:09;;;;;;;87.57;37.05;;;;;;;;;;5058318;28;20025;-85
2024/01/16 08:19:35;;;;;;;78.45;34.90;;;;;;;;;;5058229;28;20034;-85
2024/01/16 08:22:02;;;;;;;89.72;35.10;;;;;;;;;;5060725;28;20028;-85
2024/01/16 08:24:27;;;;;;;74.35;32.13;;;;;;;;;;5062202;28;20337;-85
2024/01/16 08:26:52;;;;;;;97.10;35.88;;;;;;;;;;5061909;28;20140;-85
2024/01/16 08:29:18;;;;;;;96.15;38.30;;;;;;;;;;5079547;28;20021;-85
2024/01/16 08:31:43;;;;;;;90.38;37.88;;;;;;;;;;5079269;28;20051;-85
2024/01/16 08:34:08;;;;;;;97.00;38.60;;;;;;;;;;5079401;28;20020;-85
2024/01/16 08:36:33;;;;;;;85.50;33.28;;;;;;;;;;5079693;28;20024;-85
2024/01/16 08:38:59;;;;;;;85.55;34.38;;;;;;;;;;5079281;28;20024;-85
2024/01/16 08:41:24;;;;;;;66.40;27.92;;;;;;;;;;5061434;28;20032;-85
2024/01/16 08:43:50;;;;;;;60.38;24.58;;;;;;;;;;5079217;28;20119;-85
2024/01/16 08:46:16;;;;;;;74.20;26.10;;;;;;;;;;5061457;28;20020;-85
2024/01/16 08:48:41;;;;;;;57.38;24.08;;;;;;;;;;5061468;28;20143;-85
2024/01/16 08:51:08;;;;;;;62.42;24.17;;;;;;;;;;5078912;28;20021;-85
2024/01/16 08:53:34;;;;;;;64.68;25.23;;;;;;;;;;5061409;28;20020;-85
2024/01/16 08:55:59;;;;;;;56.05;22.00;;;;;;;;;;5061325;28;20423;-84
2024/01/16 08:58:25;;;;;;;65.43;23.70;;;;;;;;;;5061260;28;20027;-84
2024/01/16 09:00:50;;;;;;;57.28;23.40;;;;;;;;;;5078842;28;20348;-84
2024/01/16 09:03:16;;;;;;;58.88;22.05;;;;;;;;;;5061153;28;20078;-84
2024/01/16 09:05:43;;;;;;;56.75;22.40;;;;;;;;;;5061101;28;20028;-85
2024/01/16 09:08:08;;;;;;;54.85;21.63;;;;;;;;;;5061077;28;20048;-85
2024/01/16 09:10:33;;;;;;;63.50;22.73;;;;;;;;;;5060926;28;20056;-82
2024/01/16 09:12:59;;;;;;;46.15;19.63;;;;;;;;;;5078637;28;20115;-82
2024/01/16 09:15:24;;;;;;;48.17;19.15;;;;;;;;;;5060893;28;20055;-82
2024/01/16 09:17:50;;;;;;;45.42;19.13;;;;;;;;;;5078928;28;20032;-82
2024/01/16 09:20:15;;;;;;;48.85;20.33;;;;;;;;;;5078370;28;20083;-82
2024/01/16 09:22:40;;;;;;;50.67;21.40;;;;;;;;;;5078454;28;20169;-84
2024/01/16 09:25:06;;;;;;;56.47;20.80;;;;;;;;;;5060799;28;20028;-85
2024/01/16 09:27:31;;;;;;;45.80;20.10;;;;;;;;;;5061050;28;20044;-85
2024/01/16 09:29:57;;;;;;;44.40;18.48;;;;;;;;;;5078316;28;20020;-85
2024/01/16 09:32:23;;;;;;;52.55;20.02;;;;;;;;;;5077817;28;20020;-85
2024/01/16 09:34:48;;;;;;;48.53;18.15;;;;;;;;;;5060865;28;20028;-85
2024/01/16 09:37:14;;;;;;;38.65;17.10;;;;;;;;;;5060593;28;20126;-85
2024/01/16 09:39:41;;;;;;;42.03;17.75;;;;;;;;;;5060759;28;20336;-85
2024/01/16 09:42:06;;;;;;;42.08;17.92;;;;;;;;;;5060501;28;20055;-85
2024/01/16 09:44:31;;;;;;;43.08;16.90;;;;;;;;;;5060663;28;20021;-85
2024/01/16 09:46:57;;;;;;;34.45;16.42;;;;;;;;;;5060696;28;20027;-85
2024/01/16 09:49:23;;;;;;;34.17;15.77;;;;;;;;;;5047141;28;20024;-85
2024/01/16 09:51:49;;;;;;;36.67;15.75;;;;;;;;;;5043031;28;20086;-87
2024/01/16 09:54:14;;;;;;;38.72;15.85;;;;;;;;;;5040181;28;20025;-86
2024/01/16 09:56:42;;;;;;;35.42;16.83;;;;;;;;;;5040136;28;20154;-86
2024/01/16 09:59:12;;;;;;;38.13;16.70;;;;;;;;;;5040454;28;20437;-86
2024/01/16 10:01:37;;;;;;;38.42;16.70;;;;;;;;;;5040104;28;20043;-87
2024/01/16 10:04:03;;;;;;;37.08;16.55;;;;;;;;;;5040392;28;20028;-86
2024/01/16 10:06:29;;;;;;;36.90;17.33;;;;;;;;;;5041270;28;20347;-86
2024/01/16 10:08:55;;;;;;;35.95;16.85;;;;;;;;;;5067471;28;20127;-87
2024/01/16 10:11:20;;;;;;;34.70;16.10;;;;;;;;;;5079285;28;20063;-86
2024/01/16 10:13:45;;;;;;;43.17;17.45;;;;;;;;;;5042928;28;20120;-87
2024/01/16 10:16:11;;;;;;;33.78;16.13;;;;;;;;;;5061320;28;20020;-85
2024/01/16 10:18:37;;;;;;;40.08;16.17;;;;;;;;;;5080586;28;20078;-85
2024/01/16 10:21:03;;;;;;;35.38;15.65;;;;;;;;;;5049040;28;20115;-85
2024/01/16 10:23:35;;;;;;;30.38;14.93;;;;;;;;;;5059770;28;20504;-85
2024/01/16 10:26:07;;;;;;;34.40;14.57;;;;;;;;;;5077200;28;20074;-85
2024/01/16 10:28:36;;;;;;;29.80;14.35;;;;;;;;;;5077545;28;20020;-86
2024/01/16 10:31:05;;;;;;;34.55;15.75;;;;;;;;;;5059390;28;20021;-86
2024/01/16 10:33:30;;;;;;;32.15;14.23;;;;;;;;;;5077350;28;20020;-86
2024/01/16 10:36:16;;;;;;;37.45;16.05;;;;;;;;;;5077101;28;20025;-85
2024/01/16 10:38:44;;;;;;;35.97;15.27;;;;;;;;;;5076599;28;20070;-86
2024/01/16 10:41:14;;;;;;;28.83;14.95;;;;;;;;;;5059281;28;20029;-86
2024/01/16 10:43:40;;;;;;;29.77;14.95;;;;;;;;;;5058571;28;20048;-86
2024/01/16 10:46:09;;;;;;;33.28;15.20;;;;;;;;;;5076955;28;20381;-83
2024/01/16 10:48:35;;;;;;;34.60;14.05;;;;;;;;;;5076890;28;20103;-82
2024/01/16 10:51:01;;;;;;;32.72;13.98;;;;;;;;;;5076659;28;20115;-83
2024/01/16 10:53:28;;;;;;;28.75;13.27;;;;;;;;;;5076904;28;20452;-82
2024/01/16 10:55:54;;;;;;;30.77;12.93;;;;;;;;;;5076843;28;20021;-85
2024/01/16 10:58:21;;;;;;;31.05;13.95;;;;;;;;;;5076756;28;20355;-85
2024/01/16 11:00:48;;;;;;;35.92;14.32;;;;;;;;;;5059011;28;20020;-85
2024/01/16 11:03:18;;;;;;;44.90;15.65;;;;;;;;;;5058972;28;20036;-85
2024/01/16 11:05:45;;;;;;;36.38;15.98;;;;;;;;;;5076926;28;20341;-85
2024/01/16 11:08:13;;;;;;;37.17;15.52;;;;;;;;;;5076875;28;20031;-85
2024/01/16 11:10:39;;;;;;;33.72;15.43;;;;;;;;;;5076566;28;20066;-85
2024/01/16 11:13:04;;;;;;;30.90;15.05;;;;;;;;;;5076652;28;20429;-86
2024/01/16 11:15:31;;;;;;;32.90;14.80;;;;;;;;;;5058918;28;20059;-86
2024/01/16 11:17:57;;;;;;;29.63;14.18;;;;;;;;;;5076591;28;20386;-86
2024/01/16 11:20:23;;;;;;;40.78;15.98;;;;;;;;;;5076379;28;20546;-86
2024/01/16 11:22:49;;;;;;;33.90;15.57;;;;;;;;;;5059084;28;20032;-85
2024/01/16 11:25:15;;;;;;;37.45;16.90;;;;;;;;;;5076526;28;20025;-86
2024/01/16 11:27:41;;;;;;;34.78;16.88;;;;;;;;;;5076522;28;20031;-86
2024/01/16 11:30:07;;;;;;;43.28;19.55;;;;;;;;;;5076404;28;20016;-85
2024/01/16 11:32:37;;;;;;;42.00;19.95;;;;;;;;;;5058623;28;20334;-86
2024/01/16 11:35:03;;;;;;;46.83;21.13;;;;;;;;;;5059009;28;20428;-85
2024/01/16 11:37:29;;;;;;;45.53;21.17;;;;;;;;;;5058727;28;20031;-85
2024/01/16 11:40:13;;;;;;;49.95;22.83;;;;;;;;;;5076377;28;20048;-85
2024/01/16 11:42:42;;;;;;;51.42;22.83;;;;;;;;;;5076255;28;20107;-85
2024/01/16 11:45:08;;;;;;;54.67;24.65;;;;;;;;;;5058944;28;20333;-85
2024/01/16 11:47:33;;;;;;;57.83;23.92;;;;;;;;;;5058582;28;20017;-86
2024/01/16 11:50:12;;;;;;;60.45;27.83;;;;;;;;;;5058579;28;20041;-86
2024/01/16 11:52:44;;;;;;;55.88;26.83;;;;;;;;;;5058429;28;20033;-83
2024/01/16 11:55:25;;;;;;;65.15;30.83;;;;;;;;;;5077629;28;20437;-83
2024/01/16 11:58:09;;;;;;;67.13;31.05;;;;;;;;;;5062717;28;20115;-83
2024/01/16 12:00:35;;;;;;;70.82;30.67;;;;;;;;;;5079906;28;20111;-83
2024/01/16 12:03:03;;;;;;;63.03;30.15;;;;;;;;;;5079942;28;20464;-83
2024/01/16 12:05:28;;;;;;;64.03;30.30;;;;;;;;;;5062322;28;20090;-83
2024/01/16 12:07:54;;;;;;;67.82;30.55;;;;;;;;;;5079848;28;20021;-83
2024/01/16 12:10:21;;;;;;;63.45;29.02;;;;;;;;;;5079796;28;20043;-83
2024/01/16 12:12:47;;;;;;;60.88;28.88;;;;;;;;;;5061880;28;20017;-83
2024/01/16 12:15:18;;;;;;;63.55;29.88;;;;;;;;;;5062125;28;20341;-83
2024/01/16 12:17:56;;;;;;;62.60;29.85;;;;;;;;;;5062088;28;20039;-83
2024/01/16 12:20:21;;;;;;;63.90;30.27;;;;;;;;;;5061881;28;20444;-83
2024/01/16 12:22:59;;;;;;;69.90;32.92;;;;;;;;;;5079897;28;20118;-83
2024/01/16 12:25:24;;;;;;;73.40;32.28;;;;;;;;;;5079630;28;20027;-83
2024/01/16 12:27:57;;;;;;;69.32;31.77;;;;;;;;;;5062118;28;20017;-83
2024/01/16 12:30:28;;;;;;;72.20;31.23;;;;;;;;;;5079385;28;20028;-83
2024/01/16 12:33:02;;;;;;;73.68;33.05;;;;;;;;;;5079408;28;20020;-83
2024/01/16 12:35:27;;;;;;;70.65;34.05;;;;;;;;;;5079407;28;20429;-83
2024/01/16 12:38:02;;;;;;;73.10;33.40;;;;;;;;;;5061125;28;20147;-83
2024/01/16 12:40:28;;;;;;;74.25;33.40;;;;;;;;;;5061511;28;20024;-83
2024/01/16 12:42:53;;;;;;;80.60;35.92;;;;;;;;;;5061842;28;20036;-83
2024/01/16 12:45:19;;;;;;;78.85;34.72;;;;;;;;;;5061517;28;20020;-83
2024/01/16 12:47:49;;;;;;;71.90;36.38;;;;;;;;;;5061497;28;20074;-83
2024/01/16 12:50:22;;;;;;;79.68;35.47;;;;;;;;;;5061077;28;20074;-83
2024/01/16 12:52:48;;;;;;;74.40;34.97;;;;;;;;;;5061542;28;20035;-83
2024/01/16 12:55:13;;;;;;;72.22;35.25;;;;;;;;;;5079061;28;20024;-83
2024/01/16 12:57:39;;;;;;;83.13;39.15;;;;;;;;;;5061041;28;20448;-86
2024/01/16 13:00:23;;;;;;;86.00;38.63;;;;;;;;;;5078968;28;20020;-86
2024/01/16 13:02:50;;;;;;;83.45;37.83;;;;;;;;;;5061140;28;20030;-86
2024/01/16 13:05:16;;;;;;;91.63;41.47;;;;;;;;;;5078825;28;20174;-86
2024/01/16 13:07:41;;;;;;;85.22;40.05;;;;;;;;;;5060683;28;20066;-85
2024/01/16 13:10:08;;;;;;;90.47;40.67;;;;;;;;;;5061136;28;20013;-86
2024/01/16 13:12:34;;;;;;;95.95;43.83;;;;;;;;;;5040963;28;20385;-86
2024/01/16 13:14:59;;;;;;;97.10;43.83;;;;;;;;;;5043550;28;20031;-86
2024/01/16 13:17:24;;;;;;;98.72;45.03;;;;;;;;;;5057585;28;20024;-86
2024/01/16 13:19:50;;;;;;;98.78;45.08;;;;;;;;;;5040972;28;20023;-86
2024/01/16 13:22:16;;;;;;;92.95;42.85;;;;;;;;;;5040657;28;20021;-85
2024/01/16 13:24:41;;;;;;;90.03;42.80;;;;;;;;;;5041132;28;20326;-86
2024/01/16 13:27:09;;;;;;;102.05;43.03;;;;;;;;;;5040560;28;20021;-86
2024/01/16 13:29:39;;;;;;;91.82;40.67;;;;;;;;;;5058284;28;20078;-86
2024/01/16 13:32:04;;;;;;;91.38;41.10;;;;;;;;;;5052547;28;20364;-85
2024/01/16 13:34:30;;;;;;;96.68;43.53;;;;;;;;;;5060520;28;20074;-85
2024/01/16 13:36:59;;;;;;;93.00;42.17;;;;;;;;;;5078043;28;20027;-86
2024/01/16 13:39:25;;;;;;;96.63;44.40;;;;;;;;;;5057252;28;20021;-86
2024/01/16 13:41:50;;;;;;;90.53;42.25;;;;;;;;;;5066474;28;20058;-86
2024/01/16 13:44:15;;;;;;;106.45;47.60;;;;;;;;;;5048778;28;20445;-87
2024/01/16 13:46:41;;;;;;;105.80;49.33;;;;;;;;;;5049742;28;20031;-86
2024/01/16 13:49:07;;;;;;;107.80;49.42;;;;;;;;;;5048063;28;20024;-86
2024/01/16 13:51:32;;;;;;;106.32;46.50;;;;;;;;;;5062140;28;20023;-87
2024/01/16 13:53:58;;;;;;;96.18;41.75;;;;;;;;;;5060408;28;20347;-86
2024/01/16 13:56:23;;;;;;;87.30;41.50;;;;;;;;;;5065811;28;20166;-87
2024/01/16 13:58:48;;;;;;;102.60;46.75;;;;;;;;;;5039881;28;20443;-87
2024/01/16 14:01:14;;;;;;;116.43;50.90;;;;;;;;;;5046956;28;20017;-84
2024/01/16 14:03:40;;;;;;;110.83;48.30;;;;;;;;;;5041469;28;20025;-84
2024/01/16 14:06:06;;;;;;;114.88;50.83;;;;;;;;;;5040102;28;20358;-84
2024/01/16 14:08:32;;;;;;;117.18;53.03;;;;;;;;;;5040105;28;20028;-87
2024/01/16 14:10:57;;;;;;;120.95;55.08;;;;;;;;;;5039854;28;20333;-86
2024/01/16 14:13:22;;;;;;;109.22;50.90;;;;;;;;;;5058118;28;20456;-84
2024/01/16 14:15:50;;;;;;;114.35;51.40;;;;;;;;;;5077446;28;20024;-83
2024/01/16 14:18:15;;;;;;;112.72;51.17;;;;;;;;;;5070734;28;20329;-83
2024/01/16 14:20:41;;;;;;;118.90;53.10;;;;;;;;;;5052663;28;20035;-83
2024/01/16 14:23:06;;;;;;;121.80;53.60;;;;;;;;;;5065578;28;20083;-83
2024/01/16 14:25:31;;;;;;;127.07;54.22;;;;;;;;;;5044328;28;20405;-86
2024/01/16 14:28:04;;;;;;;117.10;50.58;;;;;;;;;;5073017;28;20020;-86
2024/01/16 14:30:30;;;;;;;115.43;50.97;;;;;;;;;;5054421;28;20012;-86
2024/01/16 14:32:56;;;;;;;118.00;54.13;;;;;;;;;;5039519;28;20075;-86
2024/01/16 14:35:22;;;;;;;119.82;54.05;;;;;;;;;;5057013;28;20021;-86
2024/01/16 14:37:47;;;;;;;117.80;56.63;;;;;;;;;;5039343;28;20025;-86
2024/01/16 14:40:12;;;;;;;124.88;56.88;;;;;;;;;;5056881;28;20115;-86
2024/01/16 14:42:41;;;;;;;129.45;58.53;;;;;;;;;;5069494;28;20021;-86
2024/01/16 14:45:07;;;;;;;121.18;55.80;;;;;;;;;;5039305;28;20518;-84
2024/01/16 14:47:32;;;;;;;134.13;56.30;;;;;;;;;;5071608;28;20062;-85
2024/01/16 14:49:58;;;;;;;122.38;53.67;;;;;;;;;;5040549;28;20375;-86
2024/01/16 14:52:23;;;;;;;132.70;56.10;;;;;;;;;;5056708;28;20123;-86
2024/01/16 14:54:49;;;;;;;124.75;54.95;;;;;;;;;;5061758;28;20043;-85
2024/01/16 14:57:15;;;;;;;125.30;55.05;;;;;;;;;;5070337;28;20055;-86
2024/01/16 14:59:40;;;;;;;146.88;59.50;;;;;;;;;;5076289;28;20056;-84
2024/01/16 15:02:12;;;;;;;125.63;56.65;;;;;;;;;;5076501;28;20030;-86
2024/01/16 15:04:41;;;;;;;143.02;62.42;;;;;;;;;;5048408;28;20035;-86
2024/01/16 15:07:06;;;;;;;138.88;60.53;;;;;;;;;;5065656;28;20035;-86
2024/01/16 15:09:37;;;;;;;133.65;58.65;;;;;;;;;;5038851;28;20024;-86
2024/01/16 15:12:06;;;;;;;143.43;62.72;;;;;;;;;;5038776;28;20043;-86
2024/01/16 15:14:32;;;;;;;131.13;57.72;;;;;;;;;;5038834;28;20430;-86
2024/01/16 15:16:57;;;;;;;142.38;63.63;;;;;;;;;;5038834;28;20418;-86
2024/01/16 15:19:22;;;;;;;261.48;129.25;;;;;;;;;;5094366;28;20114;-86
2024/01/16 15:21:48;;;;;;;174.20;79.07;;;;;;;;;;5078674;28;20439;-86
2024/01/16 15:24:19;;;;;;;175.77;83.28;;;;;;;;;;5096541;28;20258;-86
2024/01/16 15:26:45;;;;;;;156.63;69.03;;;;;;;;;;5096639;28;20028;-86
2024/01/16 15:29:10;;;;;;;147.25;66.10;;;;;;;;;;5061026;28;20418;-86
2024/01/16 15:31:35;;;;;;;150.98;66.85;;;;;;;;;;5080258;28;20070;-86
2024/01/16 15:34:01;;;;;;;158.23;67.13;;;;;;;;;;5062729;28;20043;-86
2024/01/16 15:36:26;;;;;;;162.45;68.35;;;;;;;;;;5080432;28;20422;-87
2024/01/16 15:38:53;;;;;;;153.90;66.22;;;;;;;;;;5062661;28;20516;-86
2024/01/16 15:41:19;;;;;;;160.57;66.28;;;;;;;;;;5062561;28;20028;-86
2024/01/16 15:43:44;;;;;;;166.13;71.05;;;;;;;;;;5080547;28;20440;-86
2024/01/16 15:46:09;;;;;;;169.95;75.05;;;;;;;;;;5062947;28;20033;-87
2024/01/16 15:48:36;;;;;;;176.68;74.20;;;;;;;;;;5080200;28;20024;-86
2024/01/16 15:51:02;;;;;;;167.45;70.82;;;;;;;;;;5062027;28;20025;-86
2024/01/16 15:53:27;;;;;;;168.55;69.70;;;;;;;;;;5059457;28;20154;-86
2024/01/16 15:55:52;;;;;;;174.00;72.05;;;;;;;;;;5061641;28;20040;-86
2024/01/16 15:58:18;;;;;;;182.00;75.53;;;;;;;;;;5059996;28;20345;-86
2024/01/16 16:00:44;;;;;;;179.80;73.45;;;;;;;;;;5050860;28;20039;-86
2024/01/16 16:03:10;;;;;;;192.18;74.53;;;;;;;;;;5042860;28;20037;-88
2024/01/16 16:05:35;;;;;;;182.20;73.63;;;;;;;;;;5042597;28;20078;-88
2024/01/16 16:08:01;;;;;;;194.73;76.95;;;;;;;;;;5062031;28;20032;-87
2024/01/16 16:10:26;;;;;;;182.57;76.35;;;;;;;;;;5079476;28;20106;-88
2024/01/16 16:12:52;;;;;;;194.45;77.43;;;;;;;;;;5058427;28;20032;-88
2024/01/16 16:15:17;;;;;;;194.68;77.20;;;;;;;;;;5049325;28;20111;-87
2024/01/16 16:17:42;;;;;;;187.75;78.97;;;;;;;;;;5059406;28;20352;-88
2024/01/16 16:20:09;;;;;;;182.55;76.30;;;;;;;;;;5044448;28;20127;-88
2024/01/16 16:22:35;;;;;;;168.00;71.22;;;;;;;;;;5071265;28;20447;-88
2024/01/16 16:25:00;;;;;;;188.10;78.00;;;;;;;;;;5047661;28;20025;-88
2024/01/16 16:27:26;;;;;;;183.90;76.47;;;;;;;;;;5063313;28;20037;-88
2024/01/16 16:29:52;;;;;;;197.10;79.03;;;;;;;;;;5049913;28;20025;-88
2024/01/16 16:32:18;;;;;;;182.27;74.97;;;;;;;;;;5044841;28;20032;-86
2024/01/16 16:34:47;;;;;;;175.88;74.88;;;;;;;;;;5064246;28;20028;-86
2024/01/16 16:37:13;;;;;;;182.07;72.97;;;;;;;;;;5061293;28;20067;-86
2024/01/16 16:39:42;;;;;;;181.85;74.40;;;;;;;;;;5058016;28;21454;-86
2024/01/16 16:42:07;;;;;;;177.65;75.32;;;;;;;;;;5057904;28;20079;-86
2024/01/16 16:44:32;;;;;;;180.32;74.13;;;;;;;;;;5043614;28;20029;-86
2024/01/16 16:46:58;;;;;;;193.50;80.97;;;;;;;;;;5041419;28;20028;-86
2024/01/16 16:49:23;;;;;;;179.70;75.40;;;;;;;;;;5058870;28;20433;-86
2024/01/16 16:51:48;;;;;;;188.88;76.82;;;;;;;;;;5057152;28;20040;-86
2024/01/16 16:54:14;;;;;;;187.90;75.55;;;;;;;;;;5041196;28;20029;-86
2024/01/16 16:56:44;;;;;;;182.90;75.03;;;;;;;;;;5060417;28;20433;-85
2024/01/16 16:59:09;;;;;;;184.65;75.90;;;;;;;;;;5043879;28;20029;-86